sensor_id;sensor_type;location;lat;lon;timestamp;temperature;humidity
5842;DHT22;2947;52.276;9.946;2022-11-22T00:02:21;0.80;99.90
5842;DHT22;2947;52.276;9.946;2022-11-22T00:04:46;0.80;99.90
5842;DHT22;2947;52.276;9.946;2022-11-22T00:07:12;0.70;99.90
5842;DHT22;2947;52.276;9.946;2022-11-22T00:09:38;0.70;99.90
5842;DHT22;2947;52.276;9.946;2022-11-22T00:12:04;0.70;99.90
5842;DHT22;2947;52.276;9.946;2022-11-22T00:14:30;0.70;99.90
5842;DHT22;2947;52.276;9.946;2022-11-22T00:16:55;0.80;99.90
5842;DHT22;2947;52.276;9.946;2022-11-22T00:19:21;0.80;99.90
5842;DHT22;2947;52.276;9.946;2022-11-22T00:21:46;0.80;99.90
5842;DHT22;2947;52.276;9.946;2022-11-22T00:24:12;0.80;99.90
5842;DHT22;2947;52.276;9.946;2022-11-22T00:26:38;0.80;99.90
5842;DHT22;2947;52.276;9.946;2022-11-22T00:29:04;0.80;99.90
5842;DHT22;2947;52.276;9.946;2022-11-22T00:31:30;0.80;99.90
5842;DHT22;2947;52.276;9.946;2022-11-22T00:33:56;0.90;99.90
5842;DHT22;2947;52.276;9.946;2022-11-22T00:36:22;0.90;99.90
5842;DHT22;2947;52.276;9.946;2022-11-22T00:38:48;0.90;99.90
5842;DHT22;2947;52.276;9.946;2022-11-22T00:41:13;0.90;99.90
5842;DHT22;2947;52.276;9.946;2022-11-22T00:43:39;1.00;99.90
5842;DHT22;2947;52.276;9.946;2022-11-22T00:46:05;0.90;99.90
5842;DHT22;2947;52.276;9.946;2022-11-22T00:48:31;1.00;99.90
5842;DHT22;2947;52.276;9.946;2022-11-22T00:50:57;1.00;99.90
5842;DHT22;2947;52.276;9.946;2022-11-22T00:53:22;1.00;99.90
5842;DHT22;2947;52.276;9.946;2022-11-22T00:55:48;1.00;99.90
5842;DHT22;2947;52.276;9.946;2022-11-22T00:58:14;1.00;99.90
5842;DHT22;2947;52.276;9.946;2022-11-22T01:00:40;1.10;99.90
5842;DHT22;2947;52.276;9.946;2022-11-22T01:03:06;1.10;99.90
5842;DHT22;2947;52.276;9.946;2022-11-22T01:05:31;1.10;99.90
5842;DHT22;2947;52.276;9.946;2022-11-22T01:07:57;1.10;99.90
5842;DHT22;2947;52.276;9.946;2022-11-22T01:10:23;1.10;99.90
5842;DHT22;2947;52.276;9.946;2022-11-22T01:12:48;1.10;99.90
5842;DHT22;2947;52.276;9.946;2022-11-22T01:15:14;1.10;99.90
5842;DHT22;2947;52.276;9.946;2022-11-22T01:17:40;1.10;99.90
5842;DHT22;2947;52.276;9.946;2022-11-22T01:20:07;1.10;99.90
5842;DHT22;2947;52.276;9.946;2022-11-22T01:22:33;1.10;99.90
5842;DHT22;2947;52.276;9.946;2022-11-22T01:24:59;1.10;99.90
5842;DHT22;2947;52.276;9.946;2022-11-22T01:27:24;1.10;99.90
5842;DHT22;2947;52.276;9.946;2022-11-22T01:29:50;1.10;99.90
5842;DHT22;2947;52.276;9.946;2022-11-22T01:32:15;1.10;99.90
5842;DHT22;2947;52.276;9.946;2022-11-22T01:34:41;1.10;99.90
5842;DHT22;2947;52.276;9.946;2022-11-22T01:37:07;1.10;99.90
5842;DHT22;2947;52.276;9.946;2022-11-22T01:39:33;1.10;99.90
5842;DHT22;2947;52.276;9.946;2022-11-22T01:41:59;1.10;99.90
5842;DHT22;2947;52.276;9.946;2022-11-22T01:44:28;1.10;99.90
5842;DHT22;2947;52.276;9.946;2022-11-22T01:49:33;1.10;99.90
5842;DHT22;2947;52.276;9.946;2022-11-22T01:52:06;1.10;99.90
5842;DHT22;2947;52.276;9.946;2022-11-22T01:54:37;1.10;99.90
5842;DHT22;2947;52.276;9.946;2022-11-22T01:57:09;1.10;99.90
5842;DHT22;2947;52.276;9.946;2022-11-22T01:59:41;1.10;99.90
5842;DHT22;2947;52.276;9.946;2022-11-22T02:02:09;1.10;99.90
5842;DHT22;2947;52.276;9.946;2022-11-22T02:04:36;1.10;99.90
5842;DHT22;2947;52.276;9.946;2022-11-22T02:07:14;1.10;99.90
5842;DHT22;2947;52.276;9.946;2022-11-22T02:09:45;1.10;99.90
5842;DHT22;2947;52.276;9.946;2022-11-22T02:12:13;1.10;99.90
5842;DHT22;2947;52.276;9.946;2022-11-22T02:14:40;1.10;99.90
5842;DHT22;2947;52.276;9.946;2022-11-22T02:17:06;1.10;99.90
5842;DHT22;2947;52.276;9.946;2022-11-22T02:19:41;1.10;99.90
5842;DHT22;2947;52.276;9.946;2022-11-22T02:22:34;1.10;99.90
5842;DHT22;2947;52.276;9.946;2022-11-22T02:25:16;1.20;99.90
5842;DHT22;2947;52.276;9.946;2022-11-22T02:27:45;1.20;99.90
5842;DHT22;2947;52.276;9.946;2022-11-22T02:30:12;1.10;99.90
5842;DHT22;2947;52.276;9.946;2022-11-22T02:32:38;1.10;99.90
5842;DHT22;2947;52.276;9.946;2022-11-22T02:35:19;1.10;99.90
5842;DHT22;2947;52.276;9.946;2022-11-22T02:38:05;1.20;99.90
5842;DHT22;2947;52.276;9.946;2022-11-22T02:43:38;1.10;99.90
5842;DHT22;2947;52.276;9.946;2022-11-22T02:46:09;1.20;99.90
5842;DHT22;2947;52.276;9.946;2022-11-22T02:48:41;1.20;99.90
5842;DHT22;2947;52.276;9.946;2022-11-22T02:51:10;1.20;99.90
5842;DHT22;2947;52.276;9.946;2022-11-22T02:53:41;1.20;99.90
5842;DHT22;2947;52.276;9.946;2022-11-22T02:56:07;1.20;99.90
5842;DHT22;2947;52.276;9.946;2022-11-22T02:58:33;1.20;99.90
5842;DHT22;2947;52.276;9.946;2022-11-22T03:00:59;1.20;99.90
5842;DHT22;2947;52.276;9.946;2022-11-22T03:03:24;1.20;99.90
5842;DHT22;2947;52.276;9.946;2022-11-22T03:05:50;1.20;99.90
5842;DHT22;2947;52.276;9.946;2022-11-22T03:08:16;1.20;99.90
5842;DHT22;2947;52.276;9.946;2022-11-22T03:10:42;1.20;99.90
5842;DHT22;2947;52.276;9.946;2022-11-22T03:13:07;1.20;99.90
5842;DHT22;2947;52.276;9.946;2022-11-22T03:15:33;1.20;99.90
5842;DHT22;2947;52.276;9.946;2022-11-22T03:18:00;1.20;99.90
5842;DHT22;2947;52.276;9.946;2022-11-22T03:20:27;1.20;99.90
5842;DHT22;2947;52.276;9.946;2022-11-22T03:22:53;1.30;99.90
5842;DHT22;2947;52.276;9.946;2022-11-22T03:25:19;1.30;99.90
5842;DHT22;2947;52.276;9.946;2022-11-22T03:27:44;1.30;99.90
5842;DHT22;2947;52.276;9.946;2022-11-22T03:30:10;1.30;99.90
5842;DHT22;2947;52.276;9.946;2022-11-22T03:32:36;1.30;99.90
5842;DHT22;2947;52.276;9.946;2022-11-22T03:35:02;1.30;99.90
5842;DHT22;2947;52.276;9.946;2022-11-22T03:37:28;1.30;99.90
5842;DHT22;2947;52.276;9.946;2022-11-22T03:39:54;1.30;99.90
5842;DHT22;2947;52.276;9.946;2022-11-22T03:42:20;1.30;99.90
5842;DHT22;2947;52.276;9.946;2022-11-22T03:44:45;1.30;99.90
5842;DHT22;2947;52.276;9.946;2022-11-22T03:47:11;1.30;99.90
5842;DHT22;2947;52.276;9.946;2022-11-22T03:49:39;1.30;99.90
5842;DHT22;2947;52.276;9.946;2022-11-22T03:52:06;1.30;99.90
5842;DHT22;2947;52.276;9.946;2022-11-22T03:54:32;1.30;99.90
5842;DHT22;2947;52.276;9.946;2022-11-22T03:56:58;1.30;99.90
5842;DHT22;2947;52.276;9.946;2022-11-22T03:59:24;1.40;99.90
5842;DHT22;2947;52.276;9.946;2022-11-22T04:01:50;1.40;99.90
5842;DHT22;2947;52.276;9.946;2022-11-22T04:04:16;1.40;99.90
5842;DHT22;2947;52.276;9.946;2022-11-22T04:06:41;1.40;99.90
5842;DHT22;2947;52.276;9.946;2022-11-22T04:09:07;1.40;99.90
5842;DHT22;2947;52.276;9.946;2022-11-22T04:11:33;1.40;99.90
5842;DHT22;2947;52.276;9.946;2022-11-22T04:13:58;1.40;99.90
5842;DHT22;2947;52.276;9.946;2022-11-22T04:16:43;1.40;99.90
5842;DHT22;2947;52.276;9.946;2022-11-22T04:19:08;1.50;99.90
5842;DHT22;2947;52.276;9.946;2022-11-22T04:21:34;1.50;99.90
5842;DHT22;2947;52.276;9.946;2022-11-22T04:24:08;1.40;99.90
5842;DHT22;2947;52.276;9.946;2022-11-22T04:26:53;1.50;99.90
5842;DHT22;2947;52.276;9.946;2022-11-22T04:29:20;1.50;99.90
5842;DHT22;2947;52.276;9.946;2022-11-22T04:31:46;1.50;99.90
5842;DHT22;2947;52.276;9.946;2022-11-22T04:34:32;1.50;99.90
5842;DHT22;2947;52.276;9.946;2022-11-22T04:36:58;1.60;99.90
5842;DHT22;2947;52.276;9.946;2022-11-22T04:39:24;1.60;99.90
5842;DHT22;2947;52.276;9.946;2022-11-22T04:41:54;1.60;99.90
5842;DHT22;2947;52.276;9.946;2022-11-22T04:44:40;1.60;99.90
5842;DHT22;2947;52.276;9.946;2022-11-22T04:47:11;1.70;99.90
5842;DHT22;2947;52.276;9.946;2022-11-22T04:49:59;1.70;99.90
5842;DHT22;2947;52.276;9.946;2022-11-22T04:52:25;1.70;99.90
5842;DHT22;2947;52.276;9.946;2022-11-22T04:55:09;1.70;99.90
5842;DHT22;2947;52.276;9.946;2022-11-22T04:57:35;1.70;99.90
5842;DHT22;2947;52.276;9.946;2022-11-22T05:00:01;1.70;99.90
5842;DHT22;2947;52.276;9.946;2022-11-22T05:02:26;1.70;99.90
5842;DHT22;2947;52.276;9.946;2022-11-22T05:04:52;1.70;99.90
5842;DHT22;2947;52.276;9.946;2022-11-22T05:07:18;1.70;99.90
5842;DHT22;2947;52.276;9.946;2022-11-22T05:09:43;1.80;99.90
5842;DHT22;2947;52.276;9.946;2022-11-22T05:12:09;1.80;99.90
5842;DHT22;2947;52.276;9.946;2022-11-22T05:14:35;1.80;99.90
5842;DHT22;2947;52.276;9.946;2022-11-22T05:17:00;1.80;99.90
5842;DHT22;2947;52.276;9.946;2022-11-22T05:19:26;1.80;99.90
5842;DHT22;2947;52.276;9.946;2022-11-22T05:21:52;1.80;99.90
5842;DHT22;2947;52.276;9.946;2022-11-22T05:24:17;1.80;99.90
5842;DHT22;2947;52.276;9.946;2022-11-22T05:26:43;1.80;99.90
5842;DHT22;2947;52.276;9.946;2022-11-22T05:29:09;1.80;99.90
5842;DHT22;2947;52.276;9.946;2022-11-22T05:31:37;1.80;99.90
5842;DHT22;2947;52.276;9.946;2022-11-22T05:34:04;1.80;99.90
5842;DHT22;2947;52.276;9.946;2022-11-22T05:36:32;1.80;99.90
5842;DHT22;2947;52.276;9.946;2022-11-22T05:38:58;1.80;99.90
5842;DHT22;2947;52.276;9.946;2022-11-22T05:41:24;1.80;99.90
5842;DHT22;2947;52.276;9.946;2022-11-22T05:43:53;1.80;99.90
5842;DHT22;2947;52.276;9.946;2022-11-22T05:46:23;1.80;99.90
5842;DHT22;2947;52.276;9.946;2022-11-22T05:48:51;1.90;99.90
5842;DHT22;2947;52.276;9.946;2022-11-22T05:51:20;1.90;99.90
5842;DHT22;2947;52.276;9.946;2022-11-22T05:53:48;1.90;99.90
5842;DHT22;2947;52.276;9.946;2022-11-22T05:56:16;1.90;99.90
5842;DHT22;2947;52.276;9.946;2022-11-22T05:58:46;1.90;99.90
5842;DHT22;2947;52.276;9.946;2022-11-22T06:01:17;1.80;99.90
5842;DHT22;2947;52.276;9.946;2022-11-22T06:03:44;1.80;99.90
5842;DHT22;2947;52.276;9.946;2022-11-22T06:06:11;1.90;99.90
5842;DHT22;2947;52.276;9.946;2022-11-22T06:08:38;1.90;99.90
5842;DHT22;2947;52.276;9.946;2022-11-22T06:11:14;1.90;99.90
5842;DHT22;2947;52.276;9.946;2022-11-22T06:13:57;1.90;99.90
5842;DHT22;2947;52.276;9.946;2022-11-22T06:16:25;1.90;99.90
5842;DHT22;2947;52.276;9.946;2022-11-22T06:18:52;1.90;99.90
5842;DHT22;2947;52.276;9.946;2022-11-22T06:21:24;1.90;99.90
5842;DHT22;2947;52.276;9.946;2022-11-22T06:23:52;1.90;99.90
5842;DHT22;2947;52.276;9.946;2022-11-22T06:26:19;1.90;99.90
5842;DHT22;2947;52.276;9.946;2022-11-22T06:28:47;1.90;99.90
5842;DHT22;2947;52.276;9.946;2022-11-22T06:31:15;1.90;99.90
5842;DHT22;2947;52.276;9.946;2022-11-22T06:33:45;1.90;99.90
5842;DHT22;2947;52.276;9.946;2022-11-22T06:36:13;1.90;99.90
5842;DHT22;2947;52.276;9.946;2022-11-22T06:38:44;1.90;99.90
5842;DHT22;2947;52.276;9.946;2022-11-22T06:41:15;1.90;99.90
5842;DHT22;2947;52.276;9.946;2022-11-22T06:43:44;2.00;99.90
5842;DHT22;2947;52.276;9.946;2022-11-22T06:46:11;2.00;99.90
5842;DHT22;2947;52.276;9.946;2022-11-22T06:48:39;2.00;99.90
5842;DHT22;2947;52.276;9.946;2022-11-22T06:51:16;2.00;99.90
5842;DHT22;2947;52.276;9.946;2022-11-22T06:53:44;2.00;99.90
5842;DHT22;2947;52.276;9.946;2022-11-22T06:56:18;2.00;99.90
5842;DHT22;2947;52.276;9.946;2022-11-22T06:58:50;2.10;99.90
5842;DHT22;2947;52.276;9.946;2022-11-22T07:01:18;2.10;99.90
5842;DHT22;2947;52.276;9.946;2022-11-22T07:03:46;2.10;99.90
5842;DHT22;2947;52.276;9.946;2022-11-22T07:06:13;2.10;99.90
5842;DHT22;2947;52.276;9.946;2022-11-22T07:08:41;2.20;99.90
5842;DHT22;2947;52.276;9.946;2022-11-22T07:11:10;2.20;99.90
5842;DHT22;2947;52.276;9.946;2022-11-22T07:13:39;2.20;99.90
5842;DHT22;2947;52.276;9.946;2022-11-22T07:16:07;2.20;99.90
5842;DHT22;2947;52.276;9.946;2022-11-22T07:18:34;2.20;99.90
5842;DHT22;2947;52.276;9.946;2022-11-22T07:21:05;2.20;99.90
5842;DHT22;2947;52.276;9.946;2022-11-22T07:23:32;2.20;99.90
5842;DHT22;2947;52.276;9.946;2022-11-22T07:25:57;2.20;99.90
5842;DHT22;2947;52.276;9.946;2022-11-22T07:28:24;2.20;99.90
5842;DHT22;2947;52.276;9.946;2022-11-22T07:30:50;2.20;99.90
5842;DHT22;2947;52.276;9.946;2022-11-22T07:33:15;2.30;99.90
5842;DHT22;2947;52.276;9.946;2022-11-22T07:35:41;2.30;99.90
5842;DHT22;2947;52.276;9.946;2022-11-22T07:38:07;2.30;99.90
5842;DHT22;2947;52.276;9.946;2022-11-22T07:40:33;2.30;99.90
5842;DHT22;2947;52.276;9.946;2022-11-22T07:42:59;2.30;99.90
5842;DHT22;2947;52.276;9.946;2022-11-22T07:45:25;2.30;99.90
5842;DHT22;2947;52.276;9.946;2022-11-22T07:47:51;2.40;99.90
5842;DHT22;2947;52.276;9.946;2022-11-22T07:50:17;2.40;99.90
5842;DHT22;2947;52.276;9.946;2022-11-22T07:52:42;2.50;99.90
5842;DHT22;2947;52.276;9.946;2022-11-22T07:55:08;2.40;99.90
5842;DHT22;2947;52.276;9.946;2022-11-22T07:57:35;2.50;99.90
5842;DHT22;2947;52.276;9.946;2022-11-22T08:00:01;2.50;99.90
5842;DHT22;2947;52.276;9.946;2022-11-22T08:02:28;2.60;99.90
5842;DHT22;2947;52.276;9.946;2022-11-22T08:04:54;2.60;99.90
5842;DHT22;2947;52.276;9.946;2022-11-22T08:07:20;2.70;99.90
5842;DHT22;2947;52.276;9.946;2022-11-22T08:09:45;2.70;99.90
5842;DHT22;2947;52.276;9.946;2022-11-22T08:12:11;2.70;99.90
5842;DHT22;2947;52.276;9.946;2022-11-22T08:14:37;2.80;99.90
5842;DHT22;2947;52.276;9.946;2022-11-22T08:17:02;2.80;99.90
5842;DHT22;2947;52.276;9.946;2022-11-22T08:19:29;2.80;99.90
5842;DHT22;2947;52.276;9.946;2022-11-22T08:21:55;2.90;99.90
5842;DHT22;2947;52.276;9.946;2022-11-22T08:24:21;2.90;99.90
5842;DHT22;2947;52.276;9.946;2022-11-22T08:26:47;3.00;99.90
5842;DHT22;2947;52.276;9.946;2022-11-22T08:29:12;3.00;99.90
5842;DHT22;2947;52.276;9.946;2022-11-22T08:31:39;3.10;99.90
5842;DHT22;2947;52.276;9.946;2022-11-22T08:34:05;3.10;99.90
5842;DHT22;2947;52.276;9.946;2022-11-22T08:36:31;3.20;99.90
5842;DHT22;2947;52.276;9.946;2022-11-22T08:38:57;3.20;99.90
5842;DHT22;2947;52.276;9.946;2022-11-22T08:41:23;3.30;99.90
5842;DHT22;2947;52.276;9.946;2022-11-22T08:43:51;3.30;99.90
5842;DHT22;2947;52.276;9.946;2022-11-22T08:46:18;3.40;99.90
5842;DHT22;2947;52.276;9.946;2022-11-22T08:48:44;3.40;99.90
5842;DHT22;2947;52.276;9.946;2022-11-22T08:51:11;3.50;99.90
5842;DHT22;2947;52.276;9.946;2022-11-22T08:53:39;3.50;99.90
5842;DHT22;2947;52.276;9.946;2022-11-22T08:56:08;3.60;99.90
5842;DHT22;2947;52.276;9.946;2022-11-22T08:58:35;3.60;99.90
5842;DHT22;2947;52.276;9.946;2022-11-22T09:03:32;3.60;99.90
5842;DHT22;2947;52.276;9.946;2022-11-22T09:06:03;3.60;99.90
5842;DHT22;2947;52.276;9.946;2022-11-22T09:08:31;3.60;99.90
5842;DHT22;2947;52.276;9.946;2022-11-22T09:11:01;3.70;99.90
5842;DHT22;2947;52.276;9.946;2022-11-22T09:13:28;3.80;99.90
5842;DHT22;2947;52.276;9.946;2022-11-22T09:15:54;3.80;99.90
5842;DHT22;2947;52.276;9.946;2022-11-22T09:18:19;3.90;99.90
5842;DHT22;2947;52.276;9.946;2022-11-22T09:20:45;3.90;99.90
5842;DHT22;2947;52.276;9.946;2022-11-22T09:23:11;4.00;99.90
5842;DHT22;2947;52.276;9.946;2022-11-22T09:25:36;4.10;99.90
5842;DHT22;2947;52.276;9.946;2022-11-22T09:28:02;4.10;99.90
5842;DHT22;2947;52.276;9.946;2022-11-22T09:30:29;4.10;99.90
5842;DHT22;2947;52.276;9.946;2022-11-22T09:32:55;4.20;99.90
5842;DHT22;2947;52.276;9.946;2022-11-22T09:35:20;4.30;99.90
5842;DHT22;2947;52.276;9.946;2022-11-22T09:37:46;4.30;99.90
5842;DHT22;2947;52.276;9.946;2022-11-22T09:40:13;4.40;99.90
5842;DHT22;2947;52.276;9.946;2022-11-22T09:43:01;4.40;99.90
5842;DHT22;2947;52.276;9.946;2022-11-22T09:47:02;4.30;99.90
5842;DHT22;2947;52.276;9.946;2022-11-22T09:52:08;4.30;99.90
5842;DHT22;2947;52.276;9.946;2022-11-22T09:57:33;4.30;99.90
5842;DHT22;2947;52.276;9.946;2022-11-22T10:00:15;4.40;99.90
5842;DHT22;2947;52.276;9.946;2022-11-22T10:02:50;4.40;99.90
5842;DHT22;2947;52.276;9.946;2022-11-22T10:05:23;4.60;99.90
5842;DHT22;2947;52.276;9.946;2022-11-22T10:08:00;4.60;99.90
5842;DHT22;2947;52.276;9.946;2022-11-22T10:10:37;4.80;99.90
5842;DHT22;2947;52.276;9.946;2022-11-22T10:13:18;5.00;99.90
5842;DHT22;2947;52.276;9.946;2022-11-22T10:15:59;5.10;99.90
5842;DHT22;2947;52.276;9.946;2022-11-22T10:18:45;5.30;99.90
5842;DHT22;2947;52.276;9.946;2022-11-22T10:21:16;5.50;99.90
5842;DHT22;2947;52.276;9.946;2022-11-22T10:23:45;5.60;99.90
5842;DHT22;2947;52.276;9.946;2022-11-22T10:26:24;5.70;99.90
5842;DHT22;2947;52.276;9.946;2022-11-22T10:29:22;5.80;99.90
5842;DHT22;2947;52.276;9.946;2022-11-22T10:40:42;6.10;99.90
5842;DHT22;2947;52.276;9.946;2022-11-22T10:43:57;6.20;99.90
5842;DHT22;2947;52.276;9.946;2022-11-22T10:52:50;6.50;99.90
5842;DHT22;2947;52.276;9.946;2022-11-22T11:04:00;6.60;99.90
5842;DHT22;2947;52.276;9.946;2022-11-22T11:06:42;6.70;99.90
5842;DHT22;2947;52.276;9.946;2022-11-22T11:11:44;6.70;99.90
5842;DHT22;2947;52.276;9.946;2022-11-22T11:14:35;6.80;99.90
5842;DHT22;2947;52.276;9.946;2022-11-22T11:17:05;6.80;99.90
5842;DHT22;2947;52.276;9.946;2022-11-22T11:19:36;6.90;99.90
5842;DHT22;2947;52.276;9.946;2022-11-22T11:24:31;6.90;99.90
5842;DHT22;2947;52.276;9.946;2022-11-22T11:26:59;6.90;99.90
5842;DHT22;2947;52.276;9.946;2022-11-22T11:29:35;6.90;99.90
5842;DHT22;2947;52.276;9.946;2022-11-22T11:32:14;6.90;99.90
5842;DHT22;2947;52.276;9.946;2022-11-22T11:39:51;6.90;99.90
5842;DHT22;2947;52.276;9.946;2022-11-22T11:42:26;6.90;99.90
5842;DHT22;2947;52.276;9.946;2022-11-22T11:44:53;6.90;99.90
5842;DHT22;2947;52.276;9.946;2022-11-22T11:47:33;7.00;99.90
5842;DHT22;2947;52.276;9.946;2022-11-22T11:49:59;7.00;99.90
5842;DHT22;2947;52.276;9.946;2022-11-22T11:52:25;7.00;99.90
5842;DHT22;2947;52.276;9.946;2022-11-22T11:55:00;7.00;99.90
5842;DHT22;2947;52.276;9.946;2022-11-22T11:57:29;7.10;99.90
5842;DHT22;2947;52.276;9.946;2022-11-22T11:59:59;7.10;99.90
5842;DHT22;2947;52.276;9.946;2022-11-22T12:02:40;7.10;99.90
5842;DHT22;2947;52.276;9.946;2022-11-22T12:07:43;7.20;99.90
5842;DHT22;2947;52.276;9.946;2022-11-22T12:10:36;7.20;99.90
5842;DHT22;2947;52.276;9.946;2022-11-22T12:16:23;7.30;99.90
5842;DHT22;2947;52.276;9.946;2022-11-22T12:22:15;7.30;99.90
5842;DHT22;2947;52.276;9.946;2022-11-22T12:24:47;7.30;99.90
5842;DHT22;2947;52.276;9.946;2022-11-22T12:27:33;7.40;99.90
5842;DHT22;2947;52.276;9.946;2022-11-22T12:29:59;7.50;99.90
5842;DHT22;2947;52.276;9.946;2022-11-22T12:32:30;7.60;99.90
5842;DHT22;2947;52.276;9.946;2022-11-22T12:35:06;7.70;99.90
5842;DHT22;2947;52.276;9.946;2022-11-22T12:37:41;7.70;99.90
5842;DHT22;2947;52.276;9.946;2022-11-22T12:40:16;7.80;99.90
5842;DHT22;2947;52.276;9.946;2022-11-22T12:45:28;8.00;99.90
5842;DHT22;2947;52.276;9.946;2022-11-22T12:47:59;8.00;99.90
5842;DHT22;2947;52.276;9.946;2022-11-22T12:50:36;8.10;99.90
5842;DHT22;2947;52.276;9.946;2022-11-22T12:53:18;8.10;99.90
5842;DHT22;2947;52.276;9.946;2022-11-22T12:55:53;8.10;99.90
5842;DHT22;2947;52.276;9.946;2022-11-22T12:58:38;8.20;99.90
5842;DHT22;2947;52.276;9.946;2022-11-22T13:02:04;8.20;95.40
5842;DHT22;2947;52.276;9.946;2022-11-22T13:09:57;8.20;67.40
5842;DHT22;2947;52.276;9.946;2022-11-22T13:12:33;8.20;54.20
5842;DHT22;2947;52.276;9.946;2022-11-22T13:15:00;8.20;59.20
5842;DHT22;2947;52.276;9.946;2022-11-22T13:17:32;8.20;59.50
5842;DHT22;2947;52.276;9.946;2022-11-22T13:20:07;8.20;64.60
5842;DHT22;2947;52.276;9.946;2022-11-22T13:23:03;8.10;69.40
5842;DHT22;2947;52.276;9.946;2022-11-22T13:28:33;8.00;58.90
5842;DHT22;2947;52.276;9.946;2022-11-22T13:33:41;8.10;68.20
5842;DHT22;2947;52.276;9.946;2022-11-22T13:38:54;8.10;65.90
5842;DHT22;2947;52.276;9.946;2022-11-22T13:41:27;8.00;52.60
5842;DHT22;2947;52.276;9.946;2022-11-22T13:43:56;8.00;54.40
5842;DHT22;2947;52.276;9.946;2022-11-22T13:57:40;7.90;40.50
5842;DHT22;2947;52.276;9.946;2022-11-22T14:02:46;7.90;51.10
5842;DHT22;2947;52.276;9.946;2022-11-22T14:05:46;7.90;51.40
5842;DHT22;2947;52.276;9.946;2022-11-22T14:08:31;7.90;49.20
5842;DHT22;2947;52.276;9.946;2022-11-22T14:11:09;7.80;52.00
5842;DHT22;2947;52.276;9.946;2022-11-22T14:14:05;7.80;51.50
5842;DHT22;2947;52.276;9.946;2022-11-22T14:20:05;7.70;76.90
5842;DHT22;2947;52.276;9.946;2022-11-22T14:23:01;7.70;84.30
5842;DHT22;2947;52.276;9.946;2022-11-22T14:25:59;7.70;92.00
5842;DHT22;2947;52.276;9.946;2022-11-22T14:32:14;7.70;92.40
5842;DHT22;2947;52.276;9.946;2022-11-22T14:45:20;7.60;99.90
5842;DHT22;2947;52.276;9.946;2022-11-22T14:47:53;7.50;96.30
5842;DHT22;2947;52.276;9.946;2022-11-22T14:50:42;7.50;99.90
5842;DHT22;2947;52.276;9.946;2022-11-22T14:53:26;7.50;96.30
5842;DHT22;2947;52.276;9.946;2022-11-22T14:56:07;7.50;93.30
5842;DHT22;2947;52.276;9.946;2022-11-22T14:58:48;7.50;92.30
5842;DHT22;2947;52.276;9.946;2022-11-22T15:01:32;7.50;96.70
5842;DHT22;2947;52.276;9.946;2022-11-22T15:07:13;7.40;92.40
5842;DHT22;2947;52.276;9.946;2022-11-22T15:15:49;7.20;99.90
5842;DHT22;2947;52.276;9.946;2022-11-22T15:18:23;7.20;99.90
5842;DHT22;2947;52.276;9.946;2022-11-22T15:20:54;7.10;96.00
5842;DHT22;2947;52.276;9.946;2022-11-22T15:23:25;7.10;98.90
5842;DHT22;2947;52.276;9.946;2022-11-22T15:26:04;7.00;99.90
5842;DHT22;2947;52.276;9.946;2022-11-22T15:28:30;6.90;99.90
5842;DHT22;2947;52.276;9.946;2022-11-22T15:30:59;6.90;99.90
5842;DHT22;2947;52.276;9.946;2022-11-22T15:33:28;6.80;99.90
5842;DHT22;2947;52.276;9.946;2022-11-22T15:36:01;6.70;99.90
5842;DHT22;2947;52.276;9.946;2022-11-22T15:38:33;6.70;99.90
5842;DHT22;2947;52.276;9.946;2022-11-22T15:41:05;6.60;99.90
5842;DHT22;2947;52.276;9.946;2022-11-22T15:43:30;6.60;99.90
5842;DHT22;2947;52.276;9.946;2022-11-22T15:45:57;6.60;99.90
5842;DHT22;2947;52.276;9.946;2022-11-22T15:48:33;6.60;99.90
5842;DHT22;2947;52.276;9.946;2022-11-22T15:53:35;6.50;99.90
5842;DHT22;2947;52.276;9.946;2022-11-22T15:59:35;6.40;99.90
5842;DHT22;2947;52.276;9.946;2022-11-22T16:02:28;6.40;99.90
5842;DHT22;2947;52.276;9.946;2022-11-22T16:05:00;6.50;99.90
5842;DHT22;2947;52.276;9.946;2022-11-22T16:07:41;6.50;99.90
5842;DHT22;2947;52.276;9.946;2022-11-22T16:10:19;6.50;99.90
5842;DHT22;2947;52.276;9.946;2022-11-22T16:12:46;6.50;99.90
5842;DHT22;2947;52.276;9.946;2022-11-22T16:20:41;6.40;99.90
5842;DHT22;2947;52.276;9.946;2022-11-22T16:23:24;6.20;96.90
5842;DHT22;2947;52.276;9.946;2022-11-22T16:25:54;6.10;95.50
5842;DHT22;2947;52.276;9.946;2022-11-22T16:28:28;6.00;99.90
5842;DHT22;2947;52.276;9.946;2022-11-22T16:31:14;5.80;99.90
5842;DHT22;2947;52.276;9.946;2022-11-22T16:33:48;5.70;99.90
5842;DHT22;2947;52.276;9.946;2022-11-22T16:36:15;5.60;99.90
5842;DHT22;2947;52.276;9.946;2022-11-22T16:38:43;5.60;99.90
5842;DHT22;2947;52.276;9.946;2022-11-22T16:41:21;5.40;99.90
5842;DHT22;2947;52.276;9.946;2022-11-22T16:43:55;5.40;99.90
5842;DHT22;2947;52.276;9.946;2022-11-22T16:46:24;5.40;99.90
5842;DHT22;2947;52.276;9.946;2022-11-22T16:48:50;5.30;99.90
5842;DHT22;2947;52.276;9.946;2022-11-22T16:51:27;5.30;99.90
5842;DHT22;2947;52.276;9.946;2022-11-22T16:53:57;5.20;99.90
5842;DHT22;2947;52.276;9.946;2022-11-22T16:56:29;5.10;99.90
5842;DHT22;2947;52.276;9.946;2022-11-22T16:58:57;5.10;99.90
5842;DHT22;2947;52.276;9.946;2022-11-22T17:01:25;5.00;99.90
5842;DHT22;2947;52.276;9.946;2022-11-22T17:03:54;5.10;99.90
5842;DHT22;2947;52.276;9.946;2022-11-22T17:06:22;5.00;99.90
5842;DHT22;2947;52.276;9.946;2022-11-22T17:08:51;5.00;99.90
5842;DHT22;2947;52.276;9.946;2022-11-22T17:11:29;5.00;99.90
5842;DHT22;2947;52.276;9.946;2022-11-22T17:13:56;5.00;99.90
5842;DHT22;2947;52.276;9.946;2022-11-22T17:16:22;5.00;99.90
5842;DHT22;2947;52.276;9.946;2022-11-22T17:18:48;5.00;99.90
5842;DHT22;2947;52.276;9.946;2022-11-22T17:21:23;5.00;99.90
5842;DHT22;2947;52.276;9.946;2022-11-22T17:23:55;4.90;99.90
5842;DHT22;2947;52.276;9.946;2022-11-22T17:26:22;4.80;99.90
5842;DHT22;2947;52.276;9.946;2022-11-22T17:28:48;4.80;99.90
5842;DHT22;2947;52.276;9.946;2022-11-22T17:31:15;4.80;99.90
5842;DHT22;2947;52.276;9.946;2022-11-22T17:33:42;4.80;99.90
5842;DHT22;2947;52.276;9.946;2022-11-22T17:36:29;4.80;99.90
5842;DHT22;2947;52.276;9.946;2022-11-22T17:38:57;4.80;99.90
5842;DHT22;2947;52.276;9.946;2022-11-22T17:41:25;4.80;99.90
5842;DHT22;2947;52.276;9.946;2022-11-22T17:43:51;4.80;99.90
5842;DHT22;2947;52.276;9.946;2022-11-22T17:46:18;4.80;99.90
5842;DHT22;2947;52.276;9.946;2022-11-22T17:48:51;4.80;99.90
5842;DHT22;2947;52.276;9.946;2022-11-22T17:51:19;4.90;99.90
5842;DHT22;2947;52.276;9.946;2022-11-22T17:53:45;4.90;99.90
5842;DHT22;2947;52.276;9.946;2022-11-22T17:56:11;4.90;99.90
5842;DHT22;2947;52.276;9.946;2022-11-22T17:58:40;5.00;99.90
5842;DHT22;2947;52.276;9.946;2022-11-22T18:01:09;5.00;99.90
5842;DHT22;2947;52.276;9.946;2022-11-22T18:03:37;5.10;99.90
5842;DHT22;2947;52.276;9.946;2022-11-22T18:06:03;5.10;99.90
5842;DHT22;2947;52.276;9.946;2022-11-22T18:08:30;5.20;99.90
5842;DHT22;2947;52.276;9.946;2022-11-22T18:10:57;5.20;99.90
5842;DHT22;2947;52.276;9.946;2022-11-22T18:13:28;5.30;99.90
5842;DHT22;2947;52.276;9.946;2022-11-22T18:15:58;5.30;99.90
5842;DHT22;2947;52.276;9.946;2022-11-22T18:18:26;5.30;99.90
5842;DHT22;2947;52.276;9.946;2022-11-22T18:20:53;5.30;99.90
5842;DHT22;2947;52.276;9.946;2022-11-22T18:23:21;5.30;99.90
5842;DHT22;2947;52.276;9.946;2022-11-22T18:25:48;5.30;99.90
5842;DHT22;2947;52.276;9.946;2022-11-22T18:28:14;5.30;99.90
5842;DHT22;2947;52.276;9.946;2022-11-22T18:30:42;5.30;99.90
5842;DHT22;2947;52.276;9.946;2022-11-22T18:33:08;5.30;99.90
5842;DHT22;2947;52.276;9.946;2022-11-22T18:35:35;5.40;99.90
5842;DHT22;2947;52.276;9.946;2022-11-22T18:38:03;5.40;99.90
5842;DHT22;2947;52.276;9.946;2022-11-22T18:40:29;5.30;99.90
5842;DHT22;2947;52.276;9.946;2022-11-22T18:42:58;5.40;99.90
5842;DHT22;2947;52.276;9.946;2022-11-22T18:45:25;5.40;99.90